sensor_id;sensor_type;location;lat;lon;timestamp;temperature;humidity
17697;DHT22;8967;47.984;7.842;2023-04-24T00:01:48;13.50;98.60
17697;DHT22;8967;47.984;7.842;2023-04-24T00:04:18;13.50;98.70
17697;DHT22;8967;47.984;7.842;2023-04-24T00:06:44;13.50;98.80
17697;DHT22;8967;47.984;7.842;2023-04-24T00:09:15;13.50;98.70
17697;DHT22;8967;47.984;7.842;2023-04-24T00:11:42;13.50;98.60
17697;DHT22;8967;47.984;7.842;2023-04-24T00:14:09;13.40;98.70
17697;DHT22;8967;47.984;7.842;2023-04-24T00:16:36;13.40;98.80
17697;DHT22;8967;47.984;7.842;2023-04-24T00:19:04;13.40;98.90
17697;DHT22;8967;47.984;7.842;2023-04-24T00:21:31;13.40;98.90
17697;DHT22;8967;47.984;7.842;2023-04-24T00:23:58;13.40;98.80
17697;DHT22;8967;47.984;7.842;2023-04-24T00:26:25;13.40;98.90
17697;DHT22;8967;47.984;7.842;2023-04-24T00:28:52;13.40;98.90
17697;DHT22;8967;47.984;7.842;2023-04-24T00:31:19;13.40;98.50
17697;DHT22;8967;47.984;7.842;2023-04-24T00:33:46;13.40;98.60
17697;DHT22;8967;47.984;7.842;2023-04-24T00:36:14;13.40;98.70
17697;DHT22;8967;47.984;7.842;2023-04-24T00:38:41;13.40;98.50
17697;DHT22;8967;47.984;7.842;2023-04-24T00:41:08;13.40;98.50
17697;DHT22;8967;47.984;7.842;2023-04-24T00:43:38;13.40;98.60
17697;DHT22;8967;47.984;7.842;2023-04-24T00:46:05;13.40;98.40
17697;DHT22;8967;47.984;7.842;2023-04-24T00:48:32;13.40;98.40
17697;DHT22;8967;47.984;7.842;2023-04-24T00:50:59;13.40;98.60
17697;DHT22;8967;47.984;7.842;2023-04-24T00:53:28;13.30;98.40
17697;DHT22;8967;47.984;7.842;2023-04-24T00:55:55;13.30;98.50
17697;DHT22;8967;47.984;7.842;2023-04-24T00:58:22;13.30;98.60
17697;DHT22;8967;47.984;7.842;2023-04-24T01:00:50;13.30;98.70
17697;DHT22;8967;47.984;7.842;2023-04-24T01:03:22;13.30;98.60
17697;DHT22;8967;47.984;7.842;2023-04-24T01:05:50;13.30;98.70
17697;DHT22;8967;47.984;7.842;2023-04-24T01:08:17;13.30;98.70
17697;DHT22;8967;47.984;7.842;2023-04-24T01:10:47;13.30;98.60
17697;DHT22;8967;47.984;7.842;2023-04-24T01:13:18;13.30;98.70
17697;DHT22;8967;47.984;7.842;2023-04-24T01:15:47;13.30;98.80
17697;DHT22;8967;47.984;7.842;2023-04-24T01:18:15;13.20;99.00
17697;DHT22;8967;47.984;7.842;2023-04-24T01:20:42;13.20;98.80
17697;DHT22;8967;47.984;7.842;2023-04-24T01:23:12;13.20;98.90
17697;DHT22;8967;47.984;7.842;2023-04-24T01:25:39;13.20;98.90
17697;DHT22;8967;47.984;7.842;2023-04-24T01:28:08;13.20;99.00
17697;DHT22;8967;47.984;7.842;2023-04-24T01:30:35;13.20;99.00
17697;DHT22;8967;47.984;7.842;2023-04-24T01:33:02;13.20;99.00
17697;DHT22;8967;47.984;7.842;2023-04-24T01:35:30;13.20;99.00
17697;DHT22;8967;47.984;7.842;2023-04-24T01:37:56;13.20;99.00
17697;DHT22;8967;47.984;7.842;2023-04-24T01:40:25;13.20;99.10
17697;DHT22;8967;47.984;7.842;2023-04-24T01:42:52;13.20;99.00
17697;DHT22;8967;47.984;7.842;2023-04-24T01:45:19;13.20;99.10
17697;DHT22;8967;47.984;7.842;2023-04-24T01:47:49;13.20;99.10
17697;DHT22;8967;47.984;7.842;2023-04-24T01:50:17;13.20;99.10
17697;DHT22;8967;47.984;7.842;2023-04-24T01:52:44;13.20;99.50
17697;DHT22;8967;47.984;7.842;2023-04-24T01:55:11;13.20;99.20
17697;DHT22;8967;47.984;7.842;2023-04-24T01:57:40;13.10;99.30
17697;DHT22;8967;47.984;7.842;2023-04-24T02:00:07;13.10;99.30
17697;DHT22;8967;47.984;7.842;2023-04-24T02:02:40;13.10;99.30
17697;DHT22;8967;47.984;7.842;2023-04-24T02:05:09;13.10;99.50
17697;DHT22;8967;47.984;7.842;2023-04-24T02:07:38;13.00;99.50
17697;DHT22;8967;47.984;7.842;2023-04-24T02:10:06;13.00;99.70
17697;DHT22;8967;47.984;7.842;2023-04-24T02:12:33;13.00;99.60
17697;DHT22;8967;47.984;7.842;2023-04-24T02:15:01;13.00;99.80
17697;DHT22;8967;47.984;7.842;2023-04-24T02:17:29;13.00;99.70
17697;DHT22;8967;47.984;7.842;2023-04-24T02:19:56;13.00;99.90
17697;DHT22;8967;47.984;7.842;2023-04-24T02:22:23;13.00;99.90
17697;DHT22;8967;47.984;7.842;2023-04-24T02:24:50;13.00;99.90
17697;DHT22;8967;47.984;7.842;2023-04-24T02:27:17;13.00;99.90
17697;DHT22;8967;47.984;7.842;2023-04-24T02:29:44;13.00;99.90
17697;DHT22;8967;47.984;7.842;2023-04-24T02:32:12;13.00;99.90
17697;DHT22;8967;47.984;7.842;2023-04-24T02:34:42;13.00;99.90
17697;DHT22;8967;47.984;7.842;2023-04-24T02:37:09;13.00;99.90
17697;DHT22;8967;47.984;7.842;2023-04-24T02:39:36;13.00;99.90
17697;DHT22;8967;47.984;7.842;2023-04-24T02:42:05;12.90;99.90
17697;DHT22;8967;47.984;7.842;2023-04-24T02:44:35;12.90;99.90
17697;DHT22;8967;47.984;7.842;2023-04-24T02:47:02;12.90;99.90
17697;DHT22;8967;47.984;7.842;2023-04-24T02:49:31;12.90;99.90
17697;DHT22;8967;47.984;7.842;2023-04-24T02:51:58;12.90;99.90
17697;DHT22;8967;47.984;7.842;2023-04-24T02:54:25;12.90;99.90
17697;DHT22;8967;47.984;7.842;2023-04-24T02:56:52;12.90;99.90
17697;DHT22;8967;47.984;7.842;2023-04-24T02:59:19;12.90;99.90
17697;DHT22;8967;47.984;7.842;2023-04-24T03:01:46;12.90;99.90
17697;DHT22;8967;47.984;7.842;2023-04-24T03:04:13;12.90;99.90
17697;DHT22;8967;47.984;7.842;2023-04-24T03:06:42;12.90;99.90
17697;DHT22;8967;47.984;7.842;2023-04-24T03:09:09;13.00;99.90
17697;DHT22;8967;47.984;7.842;2023-04-24T03:11:38;12.90;99.90
17697;DHT22;8967;47.984;7.842;2023-04-24T03:14:07;12.90;99.90
17697;DHT22;8967;47.984;7.842;2023-04-24T03:16:37;13.00;99.90
17697;DHT22;8967;47.984;7.842;2023-04-24T03:19:04;13.00;99.90
17697;DHT22;8967;47.984;7.842;2023-04-24T03:21:34;13.00;99.90
17697;DHT22;8967;47.984;7.842;2023-04-24T03:24:09;13.00;99.90
17697;DHT22;8967;47.984;7.842;2023-04-24T03:26:37;13.00;99.90
17697;DHT22;8967;47.984;7.842;2023-04-24T03:29:17;13.00;99.90
17697;DHT22;8967;47.984;7.842;2023-04-24T03:31:44;13.00;99.90
17697;DHT22;8967;47.984;7.842;2023-04-24T03:34:11;13.00;99.90
17697;DHT22;8967;47.984;7.842;2023-04-24T03:36:38;13.00;99.90
17697;DHT22;8967;47.984;7.842;2023-04-24T03:39:08;13.00;99.90
17697;DHT22;8967;47.984;7.842;2023-04-24T03:41:38;13.00;99.90
17697;DHT22;8967;47.984;7.842;2023-04-24T03:44:18;13.00;99.90
17697;DHT22;8967;47.984;7.842;2023-04-24T03:46:45;13.00;99.90
17697;DHT22;8967;47.984;7.842;2023-04-24T03:49:14;13.00;99.90
17697;DHT22;8967;47.984;7.842;2023-04-24T03:51:46;12.90;99.90
17697;DHT22;8967;47.984;7.842;2023-04-24T03:54:19;12.90;99.90
17697;DHT22;8967;47.984;7.842;2023-04-24T03:56:46;12.90;99.90
17697;DHT22;8967;47.984;7.842;2023-04-24T03:59:13;12.90;99.90
17697;DHT22;8967;47.984;7.842;2023-04-24T04:01:43;12.90;99.90
17697;DHT22;8967;47.984;7.842;2023-04-24T04:04:16;12.90;99.90
17697;DHT22;8967;47.984;7.842;2023-04-24T04:06:44;12.80;99.90
17697;DHT22;8967;47.984;7.842;2023-04-24T04:09:12;12.80;99.90
17697;DHT22;8967;47.984;7.842;2023-04-24T04:11:40;12.80;99.90
17697;DHT22;8967;47.984;7.842;2023-04-24T04:14:07;12.80;99.90
17697;DHT22;8967;47.984;7.842;2023-04-24T04:16:37;12.80;99.90
17697;DHT22;8967;47.984;7.842;2023-04-24T04:19:06;12.80;99.90
17697;DHT22;8967;47.984;7.842;2023-04-24T04:21:34;12.80;99.90
17697;DHT22;8967;47.984;7.842;2023-04-24T04:24:09;12.80;99.90
17697;DHT22;8967;47.984;7.842;2023-04-24T04:26:42;12.80;99.90
17697;DHT22;8967;47.984;7.842;2023-04-24T04:29:12;12.80;99.90
17697;DHT22;8967;47.984;7.842;2023-04-24T04:31:45;12.80;99.90
17697;DHT22;8967;47.984;7.842;2023-04-24T04:34:13;12.70;99.90
17697;DHT22;8967;47.984;7.842;2023-04-24T04:36:41;12.70;99.90
17697;DHT22;8967;47.984;7.842;2023-04-24T04:39:32;12.70;99.90
17697;DHT22;8967;47.984;7.842;2023-04-24T04:42:03;12.70;99.90
17697;DHT22;8967;47.984;7.842;2023-04-24T04:44:38;12.60;99.90
17697;DHT22;8967;47.984;7.842;2023-04-24T04:47:09;12.70;99.90
17697;DHT22;8967;47.984;7.842;2023-04-24T04:49:37;12.60;99.90
17697;DHT22;8967;47.984;7.842;2023-04-24T04:52:08;12.60;99.90
17697;DHT22;8967;47.984;7.842;2023-04-24T04:54:38;12.60;99.90
17697;DHT22;8967;47.984;7.842;2023-04-24T04:57:06;12.60;99.90
17697;DHT22;8967;47.984;7.842;2023-04-24T04:59:35;12.60;99.90
17697;DHT22;8967;47.984;7.842;2023-04-24T05:02:07;12.60;99.90
17697;DHT22;8967;47.984;7.842;2023-04-24T05:04:34;12.60;99.90
17697;DHT22;8967;47.984;7.842;2023-04-24T05:07:01;12.60;99.90
17697;DHT22;8967;47.984;7.842;2023-04-24T05:09:30;12.60;99.90
17697;DHT22;8967;47.984;7.842;2023-04-24T05:12:02;12.60;99.90
17697;DHT22;8967;47.984;7.842;2023-04-24T05:14:34;12.60;99.90
17697;DHT22;8967;47.984;7.842;2023-04-24T05:17:01;12.60;99.90
17697;DHT22;8967;47.984;7.842;2023-04-24T05:19:29;12.60;99.90
17697;DHT22;8967;47.984;7.842;2023-04-24T05:21:58;12.70;99.90
17697;DHT22;8967;47.984;7.842;2023-04-24T05:24:29;12.60;99.90
17697;DHT22;8967;47.984;7.842;2023-04-24T05:27:11;12.60;99.90
17697;DHT22;8967;47.984;7.842;2023-04-24T05:29:41;12.60;99.90
17697;DHT22;8967;47.984;7.842;2023-04-24T05:32:09;12.60;99.90
17697;DHT22;8967;47.984;7.842;2023-04-24T05:34:36;12.60;99.90
17697;DHT22;8967;47.984;7.842;2023-04-24T05:37:03;12.60;99.90
17697;DHT22;8967;47.984;7.842;2023-04-24T05:39:33;12.60;99.90
17697;DHT22;8967;47.984;7.842;2023-04-24T05:42:00;12.60;99.90
17697;DHT22;8967;47.984;7.842;2023-04-24T05:44:28;12.50;99.90
17697;DHT22;8967;47.984;7.842;2023-04-24T05:47:00;12.50;99.90
17697;DHT22;8967;47.984;7.842;2023-04-24T05:49:27;12.50;99.90
17697;DHT22;8967;47.984;7.842;2023-04-24T05:51:55;12.50;99.90
17697;DHT22;8967;47.984;7.842;2023-04-24T05:54:22;12.40;99.90
17697;DHT22;8967;47.984;7.842;2023-04-24T05:56:49;12.40;99.90
17697;DHT22;8967;47.984;7.842;2023-04-24T05:59:25;12.40;99.90
17697;DHT22;8967;47.984;7.842;2023-04-24T06:01:52;12.30;99.90
17697;DHT22;8967;47.984;7.842;2023-04-24T06:04:21;12.30;99.90
17697;DHT22;8967;47.984;7.842;2023-04-24T06:06:50;12.30;99.90
17697;DHT22;8967;47.984;7.842;2023-04-24T06:09:21;12.30;99.90
17697;DHT22;8967;47.984;7.842;2023-04-24T06:11:49;12.20;99.90
17697;DHT22;8967;47.984;7.842;2023-04-24T06:14:18;12.20;99.90
17697;DHT22;8967;47.984;7.842;2023-04-24T06:17:24;12.30;99.90
17697;DHT22;8967;47.984;7.842;2023-04-24T06:19:52;12.30;99.90
17697;DHT22;8967;47.984;7.842;2023-04-24T06:22:20;12.30;99.90
17697;DHT22;8967;47.984;7.842;2023-04-24T06:24:47;12.30;99.90
17697;DHT22;8967;47.984;7.842;2023-04-24T06:27:14;12.40;99.90
17697;DHT22;8967;47.984;7.842;2023-04-24T06:29:41;12.40;99.90
17697;DHT22;8967;47.984;7.842;2023-04-24T06:32:11;12.40;99.90
17697;DHT22;8967;47.984;7.842;2023-04-24T06:34:40;12.40;99.90
17697;DHT22;8967;47.984;7.842;2023-04-24T06:37:09;12.40;99.90
17697;DHT22;8967;47.984;7.842;2023-04-24T06:39:36;12.40;99.90
17697;DHT22;8967;47.984;7.842;2023-04-24T06:42:05;12.40;99.90
17697;DHT22;8967;47.984;7.842;2023-04-24T06:44:33;12.40;99.90
17697;DHT22;8967;47.984;7.842;2023-04-24T06:47:03;12.40;99.90
17697;DHT22;8967;47.984;7.842;2023-04-24T06:49:30;12.40;99.90
17697;DHT22;8967;47.984;7.842;2023-04-24T06:51:57;12.40;99.90
17697;DHT22;8967;47.984;7.842;2023-04-24T06:54:25;12.40;99.90
17697;DHT22;8967;47.984;7.842;2023-04-24T06:56:52;12.40;99.90
17697;DHT22;8967;47.984;7.842;2023-04-24T06:59:21;12.40;99.90
17697;DHT22;8967;47.984;7.842;2023-04-24T07:01:48;12.40;99.90
17697;DHT22;8967;47.984;7.842;2023-04-24T07:04:15;12.40;99.90
17697;DHT22;8967;47.984;7.842;2023-04-24T07:06:42;12.40;99.90
17697;DHT22;8967;47.984;7.842;2023-04-24T07:09:09;12.50;99.90
17697;DHT22;8967;47.984;7.842;2023-04-24T07:11:39;12.50;99.90
17697;DHT22;8967;47.984;7.842;2023-04-24T07:14:06;12.60;99.90
17697;DHT22;8967;47.984;7.842;2023-04-24T07:16:33;12.60;99.50
17697;DHT22;8967;47.984;7.842;2023-04-24T07:19:00;12.70;99.10
17697;DHT22;8967;47.984;7.842;2023-04-24T07:21:27;12.80;98.60
17697;DHT22;8967;47.984;7.842;2023-04-24T07:23:54;12.80;98.30
17697;DHT22;8967;47.984;7.842;2023-04-24T07:26:21;12.80;97.80
17697;DHT22;8967;47.984;7.842;2023-04-24T07:28:51;12.70;97.50
17697;DHT22;8967;47.984;7.842;2023-04-24T07:31:18;12.70;97.50
17697;DHT22;8967;47.984;7.842;2023-04-24T07:33:45;12.70;97.40
17697;DHT22;8967;47.984;7.842;2023-04-24T07:36:14;12.60;96.90
17697;DHT22;8967;47.984;7.842;2023-04-24T07:38:44;12.60;96.50
17697;DHT22;8967;47.984;7.842;2023-04-24T07:41:11;12.70;96.60
17697;DHT22;8967;47.984;7.842;2023-04-24T07:43:38;12.60;96.30
17697;DHT22;8967;47.984;7.842;2023-04-24T07:46:07;12.60;96.30
17697;DHT22;8967;47.984;7.842;2023-04-24T07:48:35;12.70;96.40
17697;DHT22;8967;47.984;7.842;2023-04-24T07:51:02;12.80;96.60
17697;DHT22;8967;47.984;7.842;2023-04-24T07:53:31;12.90;95.90
17697;DHT22;8967;47.984;7.842;2023-04-24T07:55:58;13.10;95.30
17697;DHT22;8967;47.984;7.842;2023-04-24T07:58:25;13.10;93.60
17697;DHT22;8967;47.984;7.842;2023-04-24T08:00:52;13.10;93.40
17697;DHT22;8967;47.984;7.842;2023-04-24T08:03:20;13.10;93.60
17697;DHT22;8967;47.984;7.842;2023-04-24T08:05:47;13.10;93.00
17697;DHT22;8967;47.984;7.842;2023-04-24T08:08:16;13.10;93.10
17697;DHT22;8967;47.984;7.842;2023-04-24T08:10:43;13.10;92.90
17697;DHT22;8967;47.984;7.842;2023-04-24T08:13:10;13.10;92.90
17697;DHT22;8967;47.984;7.842;2023-04-24T08:15:38;13.20;93.00
17697;DHT22;8967;47.984;7.842;2023-04-24T08:18:05;13.20;92.70
17697;DHT22;8967;47.984;7.842;2023-04-24T08:20:33;13.30;93.00
17697;DHT22;8967;47.984;7.842;2023-04-24T08:23:00;13.30;92.80
17697;DHT22;8967;47.984;7.842;2023-04-24T08:25:27;13.40;93.00
17697;DHT22;8967;47.984;7.842;2023-04-24T08:27:53;13.50;93.00
17697;DHT22;8967;47.984;7.842;2023-04-24T08:30:21;13.50;92.70
17697;DHT22;8967;47.984;7.842;2023-04-24T08:32:48;13.60;92.80
17697;DHT22;8967;47.984;7.842;2023-04-24T08:35:15;13.60;92.60
17697;DHT22;8967;47.984;7.842;2023-04-24T08:37:43;13.60;92.50
17697;DHT22;8967;47.984;7.842;2023-04-24T08:40:13;13.60;92.30
17697;DHT22;8967;47.984;7.842;2023-04-24T08:42:42;13.60;91.70
17697;DHT22;8967;47.984;7.842;2023-04-24T08:45:12;13.70;91.80
17697;DHT22;8967;47.984;7.842;2023-04-24T08:47:42;13.70;89.10
17697;DHT22;8967;47.984;7.842;2023-04-24T08:50:10;13.70;86.60
17697;DHT22;8967;47.984;7.842;2023-04-24T08:52:43;13.70;85.40
17697;DHT22;8967;47.984;7.842;2023-04-24T08:55:10;13.70;84.30
17697;DHT22;8967;47.984;7.842;2023-04-24T08:57:37;13.70;82.60
17697;DHT22;8967;47.984;7.842;2023-04-24T09:00:07;13.80;81.40
17697;DHT22;8967;47.984;7.842;2023-04-24T09:02:34;13.80;81.00
17697;DHT22;8967;47.984;7.842;2023-04-24T09:05:01;13.80;79.90
17697;DHT22;8967;47.984;7.842;2023-04-24T09:07:30;13.80;80.40
17697;DHT22;8967;47.984;7.842;2023-04-24T09:10:01;13.90;78.90
17697;DHT22;8967;47.984;7.842;2023-04-24T09:12:28;13.90;77.20
17697;DHT22;8967;47.984;7.842;2023-04-24T09:14:55;13.90;75.70
17697;DHT22;8967;47.984;7.842;2023-04-24T09:17:24;13.90;76.30
17697;DHT22;8967;47.984;7.842;2023-04-24T09:19:52;13.90;74.70
17697;DHT22;8967;47.984;7.842;2023-04-24T09:22:20;13.80;74.50
17697;DHT22;8967;47.984;7.842;2023-04-24T09:24:47;13.80;74.50
17697;DHT22;8967;47.984;7.842;2023-04-24T09:27:16;13.80;73.90
17697;DHT22;8967;47.984;7.842;2023-04-24T09:29:53;13.90;74.20
17697;DHT22;8967;47.984;7.842;2023-04-24T09:32:22;13.90;73.80
17697;DHT22;8967;47.984;7.842;2023-04-24T09:35:06;13.90;73.00
17697;DHT22;8967;47.984;7.842;2023-04-24T09:37:36;13.90;72.20
17697;DHT22;8967;47.984;7.842;2023-04-24T09:40:16;13.80;72.40
17697;DHT22;8967;47.984;7.842;2023-04-24T09:42:46;13.80;71.50
17697;DHT22;8967;47.984;7.842;2023-04-24T09:45:13;13.80;72.10
17697;DHT22;8967;47.984;7.842;2023-04-24T09:47:41;13.80;72.20
17697;DHT22;8967;47.984;7.842;2023-04-24T09:50:13;13.80;72.10
17697;DHT22;8967;47.984;7.842;2023-04-24T09:52:45;13.80;72.10
17697;DHT22;8967;47.984;7.842;2023-04-24T09:55:19;13.80;72.40
17697;DHT22;8967;47.984;7.842;2023-04-24T09:57:49;13.90;73.00
17697;DHT22;8967;47.984;7.842;2023-04-24T10:00:19;14.00;74.40
17697;DHT22;8967;47.984;7.842;2023-04-24T10:02:50;14.00;72.60
17697;DHT22;8967;47.984;7.842;2023-04-24T10:05:18;14.00;72.50
17697;DHT22;8967;47.984;7.842;2023-04-24T10:07:45;14.00;72.50
17697;DHT22;8967;47.984;7.842;2023-04-24T10:10:12;14.00;72.00
17697;DHT22;8967;47.984;7.842;2023-04-24T10:12:39;14.00;71.60
17697;DHT22;8967;47.984;7.842;2023-04-24T10:15:10;14.00;70.30
17697;DHT22;8967;47.984;7.842;2023-04-24T10:17:39;14.00;70.40
17697;DHT22;8967;47.984;7.842;2023-04-24T10:20:07;14.10;70.10
17697;DHT22;8967;47.984;7.842;2023-04-24T10:22:36;14.20;70.30
17697;DHT22;8967;47.984;7.842;2023-04-24T10:25:04;14.30;69.80
17697;DHT22;8967;47.984;7.842;2023-04-24T10:27:32;14.40;70.20
17697;DHT22;8967;47.984;7.842;2023-04-24T10:30:00;14.50;68.80
17697;DHT22;8967;47.984;7.842;2023-04-24T10:32:28;14.50;68.40
17697;DHT22;8967;47.984;7.842;2023-04-24T10:34:55;14.60;68.30
17697;DHT22;8967;47.984;7.842;2023-04-24T10:37:23;14.60;66.80
17697;DHT22;8967;47.984;7.842;2023-04-24T10:39:53;14.60;68.00
17697;DHT22;8967;47.984;7.842;2023-04-24T10:42:20;14.70;67.60
17697;DHT22;8967;47.984;7.842;2023-04-24T10:44:47;14.70;67.80
17697;DHT22;8967;47.984;7.842;2023-04-24T10:47:15;14.80;67.50
17697;DHT22;8967;47.984;7.842;2023-04-24T10:49:43;14.80;67.00
17697;DHT22;8967;47.984;7.842;2023-04-24T10:52:10;14.80;66.90
17697;DHT22;8967;47.984;7.842;2023-04-24T10:54:45;14.70;66.80
17697;DHT22;8967;47.984;7.842;2023-04-24T10:57:28;14.70;66.90
17697;DHT22;8967;47.984;7.842;2023-04-24T11:00:18;14.70;67.20
17697;DHT22;8967;47.984;7.842;2023-04-24T11:02:46;14.70;67.50
17697;DHT22;8967;47.984;7.842;2023-04-24T11:05:18;14.70;67.10
17697;DHT22;8967;47.984;7.842;2023-04-24T11:08:10;14.70;67.40
17697;DHT22;8967;47.984;7.842;2023-04-24T11:10:39;14.70;67.50
17697;DHT22;8967;47.984;7.842;2023-04-24T11:13:06;14.70;67.20
17697;DHT22;8967;47.984;7.842;2023-04-24T11:15:36;14.60;66.90
17697;DHT22;8967;47.984;7.842;2023-04-24T11:18:03;14.50;67.40
17697;DHT22;8967;47.984;7.842;2023-04-24T11:20:31;14.50;67.80
17697;DHT22;8967;47.984;7.842;2023-04-24T11:23:03;14.50;68.00
17697;DHT22;8967;47.984;7.842;2023-04-24T11:25:32;14.40;68.50
17697;DHT22;8967;47.984;7.842;2023-04-24T11:28:04;14.40;68.30
17697;DHT22;8967;47.984;7.842;2023-04-24T11:30:32;14.40;68.50
17697;DHT22;8967;47.984;7.842;2023-04-24T11:33:04;14.40;68.50
17697;DHT22;8967;47.984;7.842;2023-04-24T11:35:39;14.40;69.50
17697;DHT22;8967;47.984;7.842;2023-04-24T11:38:06;14.50;69.20
17697;DHT22;8967;47.984;7.842;2023-04-24T11:40:34;14.60;69.90
17697;DHT22;8967;47.984;7.842;2023-04-24T11:43:01;14.60;69.90
17697;DHT22;8967;47.984;7.842;2023-04-24T11:45:33;14.70;68.80
17697;DHT22;8967;47.984;7.842;2023-04-24T11:48:03;14.70;69.30
17697;DHT22;8967;47.984;7.842;2023-04-24T11:50:30;14.70;69.40
17697;DHT22;8967;47.984;7.842;2023-04-24T11:52:58;14.80;69.90
17697;DHT22;8967;47.984;7.842;2023-04-24T11:55:27;14.80;70.00
17697;DHT22;8967;47.984;7.842;2023-04-24T11:57:58;14.80;69.30
17697;DHT22;8967;47.984;7.842;2023-04-24T12:00:30;14.80;69.30
17697;DHT22;8967;47.984;7.842;2023-04-24T12:03:04;14.80;69.60
17697;DHT22;8967;47.984;7.842;2023-04-24T12:05:32;14.90;70.40
17697;DHT22;8967;47.984;7.842;2023-04-24T12:08:01;15.00;70.20
17697;DHT22;8967;47.984;7.842;2023-04-24T12:10:31;15.00;69.60
17697;DHT22;8967;47.984;7.842;2023-04-24T12:12:59;15.00;69.80
17697;DHT22;8967;47.984;7.842;2023-04-24T12:15:29;15.00;69.80
17697;DHT22;8967;47.984;7.842;2023-04-24T12:17:56;15.00;68.80
17697;DHT22;8967;47.984;7.842;2023-04-24T12:20:28;14.90;69.30
17697;DHT22;8967;47.984;7.842;2023-04-24T12:22:56;14.90;69.80
17697;DHT22;8967;47.984;7.842;2023-04-24T12:25:26;15.00;70.70
17697;DHT22;8967;47.984;7.842;2023-04-24T12:27:54;15.10;70.60
17697;DHT22;8967;47.984;7.842;2023-04-24T12:30:26;15.20;70.10
17697;DHT22;8967;47.984;7.842;2023-04-24T12:32:53;15.20;70.50
17697;DHT22;8967;47.984;7.842;2023-04-24T12:35:22;15.20;69.80
17697;DHT22;8967;47.984;7.842;2023-04-24T12:37:49;15.20;70.00
17697;DHT22;8967;47.984;7.842;2023-04-24T12:40:20;15.20;70.10
17697;DHT22;8967;47.984;7.842;2023-04-24T12:42:49;15.10;69.50
17697;DHT22;8967;47.984;7.842;2023-04-24T12:45:18;15.00;69.30
17697;DHT22;8967;47.984;7.842;2023-04-24T12:47:46;14.90;69.40
17697;DHT22;8967;47.984;7.842;2023-04-24T12:50:13;14.90;69.30
17697;DHT22;8967;47.984;7.842;2023-04-24T12:52:41;14.90;70.50
17697;DHT22;8967;47.984;7.842;2023-04-24T12:55:09;14.80;69.60
17697;DHT22;8967;47.984;7.842;2023-04-24T12:57:37;14.80;70.20
17697;DHT22;8967;47.984;7.842;2023-04-24T13:00:09;14.80;69.30
17697;DHT22;8967;47.984;7.842;2023-04-24T13:02:36;14.80;69.40
17697;DHT22;8967;47.984;7.842;2023-04-24T13:05:03;14.80;70.20
17697;DHT22;8967;47.984;7.842;2023-04-24T13:07:30;14.90;70.90
17697;DHT22;8967;47.984;7.842;2023-04-24T13:09:57;15.00;71.00
17697;DHT22;8967;47.984;7.842;2023-04-24T13:12:24;15.10;70.90
17697;DHT22;8967;47.984;7.842;2023-04-24T13:14:52;15.20;69.60
17697;DHT22;8967;47.984;7.842;2023-04-24T13:17:23;15.20;69.40
17697;DHT22;8967;47.984;7.842;2023-04-24T13:19:50;15.20;69.40
17697;DHT22;8967;47.984;7.842;2023-04-24T13:22:18;15.20;68.60
17697;DHT22;8967;47.984;7.842;2023-04-24T13:24:45;15.20;69.00
17697;DHT22;8967;47.984;7.842;2023-04-24T13:27:14;15.20;69.80
17697;DHT22;8967;47.984;7.842;2023-04-24T13:52:01;15.20;69.60
17697;DHT22;8967;47.984;7.842;2023-04-24T13:54:28;15.20;69.80
17697;DHT22;8967;47.984;7.842;2023-04-24T13:56:57;15.20;69.80
17697;DHT22;8967;47.984;7.842;2023-04-24T13:59:29;15.30;69.90
17697;DHT22;8967;47.984;7.842;2023-04-24T14:01:58;15.30;70.40
17697;DHT22;8967;47.984;7.842;2023-04-24T14:04:28;15.30;70.70
17697;DHT22;8967;47.984;7.842;2023-04-24T14:07:02;15.30;70.70
17697;DHT22;8967;47.984;7.842;2023-04-24T14:09:38;15.20;71.30
17697;DHT22;8967;47.984;7.842;2023-04-24T14:12:10;15.20;70.80
17697;DHT22;8967;47.984;7.842;2023-04-24T14:14:39;15.20;70.60
17697;DHT22;8967;47.984;7.842;2023-04-24T14:17:09;15.10;70.80
17697;DHT22;8967;47.984;7.842;2023-04-24T14:19:39;15.10;71.10
17697;DHT22;8967;47.984;7.842;2023-04-24T14:22:09;15.10;71.60
17697;DHT22;8967;47.984;7.842;2023-04-24T14:24:50;15.00;71.20
17697;DHT22;8967;47.984;7.842;2023-04-24T14:27:17;15.00;72.40
17697;DHT22;8967;47.984;7.842;2023-04-24T14:29:52;15.00;72.90
17697;DHT22;8967;47.984;7.842;2023-04-24T14:32:24;15.00;73.20
17697;DHT22;8967;47.984;7.842;2023-04-24T14:34:51;14.90;72.30
17697;DHT22;8967;47.984;7.842;2023-04-24T14:37:39;14.80;72.40
17697;DHT22;8967;47.984;7.842;2023-04-24T14:40:12;14.80;72.90
17697;DHT22;8967;47.984;7.842;2023-04-24T14:42:41;14.70;72.70
17697;DHT22;8967;47.984;7.842;2023-04-24T14:45:14;14.70;73.20
17697;DHT22;8967;47.984;7.842;2023-04-24T14:47:53;14.60;73.40
17697;DHT22;8967;47.984;7.842;2023-04-24T14:50:25;14.60;73.10
17697;DHT22;8967;47.984;7.842;2023-04-24T14:53:02;14.60;72.20
17697;DHT22;8967;47.984;7.842;2023-04-24T14:55:40;14.50;71.50
17697;DHT22;8967;47.984;7.842;2023-04-24T14:58:07;14.50;71.00
17697;DHT22;8967;47.984;7.842;2023-04-24T15:00:40;14.40;70.60
17697;DHT22;8967;47.984;7.842;2023-04-24T15:03:29;14.50;71.00
17697;DHT22;8967;47.984;7.842;2023-04-24T15:06:05;14.50;71.40
17697;DHT22;8967;47.984;7.842;2023-04-24T15:08:35;14.50;71.50
17697;DHT22;8967;47.984;7.842;2023-04-24T15:11:03;14.50;71.60
17697;DHT22;8967;47.984;7.842;2023-04-24T15:13:31;14.60;71.70
17697;DHT22;8967;47.984;7.842;2023-04-24T15:15:58;14.50;71.50
17697;DHT22;8967;47.984;7.842;2023-04-24T15:18:30;14.50;72.20
17697;DHT22;8967;47.984;7.842;2023-04-24T15:20:57;14.60;72.70
17697;DHT22;8967;47.984;7.842;2023-04-24T15:23:26;14.60;72.80
17697;DHT22;8967;47.984;7.842;2023-04-24T15:25:55;14.60;73.10
17697;DHT22;8967;47.984;7.842;2023-04-24T15:28:24;14.60;72.90
17697;DHT22;8967;47.984;7.842;2023-04-24T15:30:52;14.70;73.20
17697;DHT22;8967;47.984;7.842;2023-04-24T15:33:28;14.60;73.20
17697;DHT22;8967;47.984;7.842;2023-04-24T15:35:55;14.60;73.30
17697;DHT22;8967;47.984;7.842;2023-04-24T15:38:28;14.60;73.20
17697;DHT22;8967;47.984;7.842;2023-04-24T15:41:00;14.60;72.70
17697;DHT22;8967;47.984;7.842;2023-04-24T15:43:35;14.60;73.00
17697;DHT22;8967;47.984;7.842;2023-04-24T15:46:05;14.60;72.90
17697;DHT22;8967;47.984;7.842;2023-04-24T15:48:32;14.60;72.60
17697;DHT22;8967;47.984;7.842;2023-04-24T15:50:59;14.50;72.70
17697;DHT22;8967;47.984;7.842;2023-04-24T15:53:27;14.50;73.30
17697;DHT22;8967;47.984;7.842;2023-04-24T15:55:54;14.60;73.60
17697;DHT22;8967;47.984;7.842;2023-04-24T15:58:27;14.60;73.50
17697;DHT22;8967;47.984;7.842;2023-04-24T16:00:59;14.60;73.70
17697;DHT22;8967;47.984;7.842;2023-04-24T16:03:35;14.60;73.70
17697;DHT22;8967;47.984;7.842;2023-04-24T16:06:19;14.60;74.10
17697;DHT22;8967;47.984;7.842;2023-04-24T16:08:46;14.60;74.30
17697;DHT22;8967;47.984;7.842;2023-04-24T16:11:13;14.50;73.90
17697;DHT22;8967;47.984;7.842;2023-04-24T16:13:43;14.60;74.40
17697;DHT22;8967;47.984;7.842;2023-04-24T16:16:13;14.60;74.60
17697;DHT22;8967;47.984;7.842;2023-04-24T16:18:40;14.50;74.30
17697;DHT22;8967;47.984;7.842;2023-04-24T16:21:07;14.50;74.00